Carpenter, South Dakota
Current Conditions -  °F | °C
As of 6:08 PM on Sunday 21 Dec 2014 (Local Time) from KHON Reporting Station
Haze Haze  
Wind Chill: 26°   Ceiling: 900
Heat Index: 35°   Visibility: 6mi
Dew Point: 32°   Wind: 14mph
Humidity: 89%   Direction: 160°SSE
Pressure: 29.48"   Gusts: 23mph
Location:  44.64°N, 97.92°W
Report Text: KHON 220008Z AUTO 16012G20KT 6SM BR BKN009 02/00 A2948 RMK AO2 T00170000
Loading
Personal Weather Stations






























Interactive Weather Map New forecast layout! Learn more

10-Day Weather Forecast

Advertisements
Track Severe Weather on mobile